Air Sicilia Virtual Airways - Route

Air Sicilia Virtual Airways - SIC093L

( ES ) LEIB
Ibiza Airport
IBIZA ( IBZ )
plane_to ( ES ) LEMH
Menorca Airport
MENORCA ISLAND ( MAH )
Mediterraneo TOUR VFR - LEG: 13

AIRPORT NEAR NAVIGATION AIDS

Type Name Frequency
VOR-DME Ibiza 117800 KHZ
NDB Ibiza 394 KHZ

METAR / TAF
LEIB 210330Z 04009KT CAVOK 25/20 Q1016 NOSIG
LEIB 210200Z 2103/2203 06010KT 9999 FEW020 TX32/2112Z TN23/2105Z

RUNWAY INFORMATION

Runway Runway length Runway width Runway elevation Runway displaced threshold Runway heading
06 9186 148 13 0 62.1
24 9186 148 16 0 242.1

AIRPORT FREQUENCIES

Type Name Frequency
APP PALMA APP 118.125 MHZ
APP APP 119.8 MHZ
ATIS ATIS 117.8 MHZ
GND GND 121.8 MHZ
TWR TWR 118.5 MHZ

AIRPORT NEAR NAVIGATION AIDS

Type Name Frequency
VOR-DME Menorca 112600 KHZ
NDB Menorca 344 KHZ

METAR / TAF
LEMH 210330Z AUTO 06007KT CAVOK 23/22 Q1019
LEMH 210200Z 2103/2203 09008KT 9999 FEW030 TX31/2112Z TN21/2105Z

RUNWAY INFORMATION

Runway Runway length Runway width Runway elevation Runway displaced threshold Runway heading
01L 7710 148 277 0 9
19R 7710 148 298 0 189
01R 6890 148 272 0 9
19L 6890 148 298 0 189

AIRPORT FREQUENCIES

Type Name Frequency
APP APP 119.65 MHZ
ATIS ATIS 112.6 MHZ
GND GND 121.75 MHZ
TWR TWR 118.2 MHZ

Flightplan

passando per POLLENCA

Air Sicilia Virtual Airways Fleets

AVAILABLE AIRCRAFTS for route at this time in Ibiza Airport
C172 - Cessna 172 Skyhawk
( US ) Cessna

Aircraft in fleet: 13

183 NM

Distance in nautical miles.

€ 100,00

Ticket price for this flight.

Nr. 13

Leg



12-11-2018
Aerosoft Airport Rio de Janeiro International V2.0 XP

L'Aeroporto Internazionale di Rio de Janeiro-Galeão (IATA: GIG, ICAO: SBGL), costruito nel 1952 nel quartiere di Ilha do Governador ed intitolato al musicista Antônio Carlos Jobim, è il principale aeroporto internazio ....


15-10-2018
Aerosoft A320 Family professional

La gamma di aeromobili A320 è una delle più comuni nei cieli. Questi aerei di linea a doppio-getto a corto e medio raggio si sono dimostrati convenienti, affidabili e prontamente disponibili, rendendoli le opzioni migl ....


10-10-2018
Motore critico ( Critical Engine )

Il motore critico di un velivolo ad ala fissa multi-motore è il motore che, in caso di guasto, influirebbe negativamente sulle prestazioni o sulla capacità di manovra di un aereo. Sui velivoli ad elica, vi è un ....


04-10-2018
Aerosoft Dortmund XP

Scopri il centro della regione della Ruhr su XPlane 11 - lo scenario Dortmund XP è una ricostruzione completa della città di Dortmund per il simulatore di volo targato Laminar. Oltre all'intera area urbana di Dortmu ....


07-08-2018
Aerosoft Professional Flight Planner PFPX

PFPX - Professional Flight Planner X - è un nuovo ed innovativo strumento di pianificazione del volo sviluppato da piloti e dispatcher del mondo reale. È un'aggiunta preziosa e realistica alla tua esperienza di simulaz ....